sensor_id;sensor_type;location;lat;lon;timestamp;temperature;humidity
42683;DHT22;28293;50.930;3.464;2023-11-21T00:00:49;8.80;99.90
42683;DHT22;28293;50.930;3.464;2023-11-21T00:03:15;8.80;99.90
42683;DHT22;28293;50.930;3.464;2023-11-21T00:05:41;8.80;99.90
42683;DHT22;28293;50.930;3.464;2023-11-21T00:08:08;8.90;99.90
42683;DHT22;28293;50.930;3.464;2023-11-21T00:10:34;8.90;99.90
42683;DHT22;28293;50.930;3.464;2023-11-21T00:13:00;8.80;99.90
42683;DHT22;28293;50.930;3.464;2023-11-21T00:15:28;8.90;99.90
42683;DHT22;28293;50.930;3.464;2023-11-21T00:17:54;8.80;99.90
42683;DHT22;28293;50.930;3.464;2023-11-21T00:20:20;8.80;99.90
42683;DHT22;28293;50.930;3.464;2023-11-21T00:22:46;8.80;99.90
42683;DHT22;28293;50.930;3.464;2023-11-21T00:25:12;8.90;99.80
42683;DHT22;28293;50.930;3.464;2023-11-21T00:27:41;8.90;99.80
42683;DHT22;28293;50.930;3.464;2023-11-21T00:30:07;8.90;99.80
42683;DHT22;28293;50.930;3.464;2023-11-21T00:32:35;8.90;99.70
42683;DHT22;28293;50.930;3.464;2023-11-21T00:35:01;8.90;99.70
42683;DHT22;28293;50.930;3.464;2023-11-21T00:37:27;9.00;99.70
42683;DHT22;28293;50.930;3.464;2023-11-21T00:39:53;9.00;99.70
42683;DHT22;28293;50.930;3.464;2023-11-21T00:42:19;9.00;99.70
42683;DHT22;28293;50.930;3.464;2023-11-21T00:44:45;9.00;99.70
42683;DHT22;28293;50.930;3.464;2023-11-21T00:47:11;9.10;99.70
42683;DHT22;28293;50.930;3.464;2023-11-21T00:49:37;9.10;99.70
42683;DHT22;28293;50.930;3.464;2023-11-21T00:52:05;9.10;99.70
42683;DHT22;28293;50.930;3.464;2023-11-21T00:54:31;9.10;99.60
42683;DHT22;28293;50.930;3.464;2023-11-21T00:56:57;9.10;99.60
42683;DHT22;28293;50.930;3.464;2023-11-21T00:59:23;9.10;99.60
42683;DHT22;28293;50.930;3.464;2023-11-21T01:01:52;9.10;99.60
42683;DHT22;28293;50.930;3.464;2023-11-21T01:04:19;9.10;99.60
42683;DHT22;28293;50.930;3.464;2023-11-21T01:06:45;9.20;99.60
42683;DHT22;28293;50.930;3.464;2023-11-21T01:09:11;9.20;99.60
42683;DHT22;28293;50.930;3.464;2023-11-21T01:11:38;9.20;99.60
42683;DHT22;28293;50.930;3.464;2023-11-21T01:14:04;9.20;99.60
42683;DHT22;28293;50.930;3.464;2023-11-21T01:16:30;9.20;99.60
42683;DHT22;28293;50.930;3.464;2023-11-21T01:18:58;9.20;99.60
42683;DHT22;28293;50.930;3.464;2023-11-21T01:21:24;9.20;99.60
42683;DHT22;28293;50.930;3.464;2023-11-21T01:23:50;9.20;99.60
42683;DHT22;28293;50.930;3.464;2023-11-21T01:26:16;9.30;99.60
42683;DHT22;28293;50.930;3.464;2023-11-21T01:28:41;9.30;99.50
42683;DHT22;28293;50.930;3.464;2023-11-21T01:31:07;9.20;99.50
42683;DHT22;28293;50.930;3.464;2023-11-21T01:33:33;9.30;99.60
42683;DHT22;28293;50.930;3.464;2023-11-21T01:35:58;9.30;99.60
42683;DHT22;28293;50.930;3.464;2023-11-21T01:38:25;9.30;99.60
42683;DHT22;28293;50.930;3.464;2023-11-21T01:40:51;9.30;99.60
42683;DHT22;28293;50.930;3.464;2023-11-21T01:43:17;9.30;99.60
42683;DHT22;28293;50.930;3.464;2023-11-21T01:45:42;9.30;99.60
42683;DHT22;28293;50.930;3.464;2023-11-21T01:48:10;9.30;99.60
42683;DHT22;28293;50.930;3.464;2023-11-21T01:50:36;9.30;99.60
42683;DHT22;28293;50.930;3.464;2023-11-21T01:53:02;9.30;99.60
42683;DHT22;28293;50.930;3.464;2023-11-21T01:55:29;9.30;99.60
42683;DHT22;28293;50.930;3.464;2023-11-21T01:57:56;9.30;99.60
42683;DHT22;28293;50.930;3.464;2023-11-21T02:00:22;9.40;99.60
42683;DHT22;28293;50.930;3.464;2023-11-21T02:02:49;9.40;99.60
42683;DHT22;28293;50.930;3.464;2023-11-21T02:05:15;9.40;99.60
42683;DHT22;28293;50.930;3.464;2023-11-21T02:07:44;9.40;99.70
42683;DHT22;28293;50.930;3.464;2023-11-21T02:10:10;9.40;99.60
42683;DHT22;28293;50.930;3.464;2023-11-21T02:12:43;9.40;99.60
42683;DHT22;28293;50.930;3.464;2023-11-21T02:15:13;9.40;99.60
42683;DHT22;28293;50.930;3.464;2023-11-21T02:17:49;9.40;99.60
42683;DHT22;28293;50.930;3.464;2023-11-21T02:20:22;9.40;99.60
42683;DHT22;28293;50.930;3.464;2023-11-21T02:22:51;9.40;99.60
42683;DHT22;28293;50.930;3.464;2023-11-21T02:25:27;9.40;99.60
42683;DHT22;28293;50.930;3.464;2023-11-21T02:27:53;9.40;99.70
42683;DHT22;28293;50.930;3.464;2023-11-21T02:30:23;9.40;99.60
42683;DHT22;28293;50.930;3.464;2023-11-21T02:32:51;9.40;99.60
42683;DHT22;28293;50.930;3.464;2023-11-21T02:35:19;9.50;99.70
42683;DHT22;28293;50.930;3.464;2023-11-21T02:37:47;9.50;99.60
42683;DHT22;28293;50.930;3.464;2023-11-21T02:40:12;9.50;99.70
42683;DHT22;28293;50.930;3.464;2023-11-21T02:42:39;9.50;99.70
42683;DHT22;28293;50.930;3.464;2023-11-21T02:45:07;9.50;99.70
42683;DHT22;28293;50.930;3.464;2023-11-21T02:47:33;9.50;99.70
42683;DHT22;28293;50.930;3.464;2023-11-21T02:49:59;9.50;99.70
42683;DHT22;28293;50.930;3.464;2023-11-21T02:52:24;9.60;99.70
42683;DHT22;28293;50.930;3.464;2023-11-21T02:54:50;9.50;99.70
42683;DHT22;28293;50.930;3.464;2023-11-21T02:57:16;9.60;99.70
42683;DHT22;28293;50.930;3.464;2023-11-21T02:59:42;9.60;99.70
42683;DHT22;28293;50.930;3.464;2023-11-21T03:02:08;9.60;99.70
42683;DHT22;28293;50.930;3.464;2023-11-21T03:04:34;9.60;99.70
42683;DHT22;28293;50.930;3.464;2023-11-21T03:07:00;9.60;99.70
42683;DHT22;28293;50.930;3.464;2023-11-21T03:09:26;9.60;99.70
42683;DHT22;28293;50.930;3.464;2023-11-21T03:11:53;9.60;99.70
42683;DHT22;28293;50.930;3.464;2023-11-21T03:14:19;9.60;99.60
42683;DHT22;28293;50.930;3.464;2023-11-21T03:16:45;9.60;99.70
42683;DHT22;28293;50.930;3.464;2023-11-21T03:19:11;9.60;99.70
42683;DHT22;28293;50.930;3.464;2023-11-21T03:21:37;9.70;99.80
42683;DHT22;28293;50.930;3.464;2023-11-21T03:24:03;9.60;99.70
42683;DHT22;28293;50.930;3.464;2023-11-21T03:26:29;9.70;99.70
42683;DHT22;28293;50.930;3.464;2023-11-21T03:28:55;9.70;99.70
42683;DHT22;28293;50.930;3.464;2023-11-21T03:31:21;9.70;99.70
42683;DHT22;28293;50.930;3.464;2023-11-21T03:33:46;9.70;99.70
42683;DHT22;28293;50.930;3.464;2023-11-21T03:36:13;9.70;99.70
42683;DHT22;28293;50.930;3.464;2023-11-21T03:38:40;9.70;99.70
42683;DHT22;28293;50.930;3.464;2023-11-21T03:41:07;9.70;99.70
42683;DHT22;28293;50.930;3.464;2023-11-21T03:43:35;9.70;99.70
42683;DHT22;28293;50.930;3.464;2023-11-21T03:46:01;9.70;99.70
42683;DHT22;28293;50.930;3.464;2023-11-21T03:48:27;9.70;99.70
42683;DHT22;28293;50.930;3.464;2023-11-21T03:50:53;9.70;99.80
42683;DHT22;28293;50.930;3.464;2023-11-21T03:53:19;9.80;99.80
42683;DHT22;28293;50.930;3.464;2023-11-21T03:55:44;9.80;99.80
42683;DHT22;28293;50.930;3.464;2023-11-21T03:58:10;9.80;99.80
42683;DHT22;28293;50.930;3.464;2023-11-21T04:00:36;9.70;99.80
42683;DHT22;28293;50.930;3.464;2023-11-21T04:03:01;9.80;99.80
42683;DHT22;28293;50.930;3.464;2023-11-21T04:05:27;9.80;99.80
42683;DHT22;28293;50.930;3.464;2023-11-21T04:07:53;9.80;99.80
42683;DHT22;28293;50.930;3.464;2023-11-21T04:10:18;9.80;99.90
42683;DHT22;28293;50.930;3.464;2023-11-21T04:12:44;9.80;99.80
42683;DHT22;28293;50.930;3.464;2023-11-21T04:15:11;9.90;99.80
42683;DHT22;28293;50.930;3.464;2023-11-21T04:17:38;9.90;99.90
42683;DHT22;28293;50.930;3.464;2023-11-21T04:20:05;9.90;99.90
42683;DHT22;28293;50.930;3.464;2023-11-21T04:22:41;9.90;99.90
42683;DHT22;28293;50.930;3.464;2023-11-21T04:25:13;9.90;99.90
42683;DHT22;28293;50.930;3.464;2023-11-21T04:27:39;9.90;99.90
42683;DHT22;28293;50.930;3.464;2023-11-21T04:30:05;9.90;99.90
42683;DHT22;28293;50.930;3.464;2023-11-21T04:32:31;9.90;99.90
42683;DHT22;28293;50.930;3.464;2023-11-21T04:34:57;9.90;99.90
42683;DHT22;28293;50.930;3.464;2023-11-21T04:37:23;9.90;99.90
42683;DHT22;28293;50.930;3.464;2023-11-21T04:39:49;9.90;99.90
42683;DHT22;28293;50.930;3.464;2023-11-21T04:42:15;9.90;99.90
42683;DHT22;28293;50.930;3.464;2023-11-21T04:44:41;10.00;99.90
42683;DHT22;28293;50.930;3.464;2023-11-21T04:47:07;10.00;99.90
42683;DHT22;28293;50.930;3.464;2023-11-21T04:49:33;10.00;99.90
42683;DHT22;28293;50.930;3.464;2023-11-21T04:51:59;10.00;99.90
42683;DHT22;28293;50.930;3.464;2023-11-21T04:54:24;10.00;99.90
42683;DHT22;28293;50.930;3.464;2023-11-21T04:56:50;10.00;99.90
42683;DHT22;28293;50.930;3.464;2023-11-21T04:59:16;10.00;99.90
42683;DHT22;28293;50.930;3.464;2023-11-21T05:01:41;10.10;99.90
42683;DHT22;28293;50.930;3.464;2023-11-21T05:04:07;10.10;99.90
42683;DHT22;28293;50.930;3.464;2023-11-21T05:06:34;10.00;99.90
42683;DHT22;28293;50.930;3.464;2023-11-21T05:09:00;10.10;99.90
42683;DHT22;28293;50.930;3.464;2023-11-21T05:11:26;10.10;99.90
42683;DHT22;28293;50.930;3.464;2023-11-21T05:13:53;10.10;99.90
42683;DHT22;28293;50.930;3.464;2023-11-21T05:16:19;10.10;99.90
42683;DHT22;28293;50.930;3.464;2023-11-21T05:18:45;10.10;99.90
42683;DHT22;28293;50.930;3.464;2023-11-21T05:21:11;10.10;99.90
42683;DHT22;28293;50.930;3.464;2023-11-21T05:23:37;10.10;99.90
42683;DHT22;28293;50.930;3.464;2023-11-21T05:26:03;10.10;99.90
42683;DHT22;28293;50.930;3.464;2023-11-21T05:28:29;10.10;99.90
42683;DHT22;28293;50.930;3.464;2023-11-21T05:30:54;10.10;99.90
42683;DHT22;28293;50.930;3.464;2023-11-21T05:33:20;10.00;99.90
42683;DHT22;28293;50.930;3.464;2023-11-21T05:35:46;10.00;99.90
42683;DHT22;28293;50.930;3.464;2023-11-21T05:38:14;10.10;99.90
42683;DHT22;28293;50.930;3.464;2023-11-21T05:40:39;10.10;99.90
42683;DHT22;28293;50.930;3.464;2023-11-21T05:43:06;10.10;99.90
42683;DHT22;28293;50.930;3.464;2023-11-21T05:45:32;10.10;99.90
42683;DHT22;28293;50.930;3.464;2023-11-21T05:47:58;10.10;99.90
42683;DHT22;28293;50.930;3.464;2023-11-21T05:50:24;10.10;99.90
42683;DHT22;28293;50.930;3.464;2023-11-21T05:52:50;10.10;99.90
42683;DHT22;28293;50.930;3.464;2023-11-21T05:55:16;10.00;99.90
42683;DHT22;28293;50.930;3.464;2023-11-21T05:57:43;10.10;99.90
42683;DHT22;28293;50.930;3.464;2023-11-21T06:00:10;10.00;99.90
42683;DHT22;28293;50.930;3.464;2023-11-21T06:02:38;10.00;99.90
42683;DHT22;28293;50.930;3.464;2023-11-21T06:05:05;10.00;99.90
42683;DHT22;28293;50.930;3.464;2023-11-21T06:07:30;10.00;99.90
42683;DHT22;28293;50.930;3.464;2023-11-21T06:09:56;10.00;99.90
42683;DHT22;28293;50.930;3.464;2023-11-21T06:12:22;10.00;99.90
42683;DHT22;28293;50.930;3.464;2023-11-21T06:14:47;10.00;99.90
42683;DHT22;28293;50.930;3.464;2023-11-21T06:17:13;10.00;99.90
42683;DHT22;28293;50.930;3.464;2023-11-21T06:19:39;10.00;99.90
42683;DHT22;28293;50.930;3.464;2023-11-21T06:22:05;10.00;99.90
42683;DHT22;28293;50.930;3.464;2023-11-21T06:24:31;10.00;99.90
42683;DHT22;28293;50.930;3.464;2023-11-21T06:26:57;10.00;99.90
42683;DHT22;28293;50.930;3.464;2023-11-21T06:29:23;10.00;99.90
42683;DHT22;28293;50.930;3.464;2023-11-21T06:31:49;10.00;99.90
42683;DHT22;28293;50.930;3.464;2023-11-21T06:34:14;9.90;99.90
42683;DHT22;28293;50.930;3.464;2023-11-21T06:36:40;9.90;99.90
42683;DHT22;28293;50.930;3.464;2023-11-21T06:39:06;10.00;99.90
42683;DHT22;28293;50.930;3.464;2023-11-21T06:41:33;9.90;99.90
42683;DHT22;28293;50.930;3.464;2023-11-21T06:43:59;9.90;99.90
42683;DHT22;28293;50.930;3.464;2023-11-21T06:46:25;9.90;99.90
42683;DHT22;28293;50.930;3.464;2023-11-21T06:48:50;10.00;99.90
42683;DHT22;28293;50.930;3.464;2023-11-21T06:51:16;10.00;99.90
42683;DHT22;28293;50.930;3.464;2023-11-21T06:53:42;10.00;99.90
42683;DHT22;28293;50.930;3.464;2023-11-21T06:56:17;10.00;99.90
42683;DHT22;28293;50.930;3.464;2023-11-21T06:58:45;10.00;99.90
42683;DHT22;28293;50.930;3.464;2023-11-21T07:01:11;10.00;99.90
42683;DHT22;28293;50.930;3.464;2023-11-21T07:03:37;10.00;99.90
42683;DHT22;28293;50.930;3.464;2023-11-21T07:06:03;10.00;99.90
42683;DHT22;28293;50.930;3.464;2023-11-21T07:08:29;10.00;99.90
42683;DHT22;28293;50.930;3.464;2023-11-21T07:10:55;10.10;99.90
42683;DHT22;28293;50.930;3.464;2023-11-21T07:13:20;10.00;99.90
42683;DHT22;28293;50.930;3.464;2023-11-21T07:15:47;10.00;99.90
42683;DHT22;28293;50.930;3.464;2023-11-21T07:18:13;10.00;99.90
42683;DHT22;28293;50.930;3.464;2023-11-21T07:20:39;10.10;99.90
42683;DHT22;28293;50.930;3.464;2023-11-21T07:23:05;10.10;99.90
42683;DHT22;28293;50.930;3.464;2023-11-21T07:25:31;10.10;99.90
42683;DHT22;28293;50.930;3.464;2023-11-21T07:27:59;10.10;99.90
42683;DHT22;28293;50.930;3.464;2023-11-21T07:30:25;10.10;99.90
42683;DHT22;28293;50.930;3.464;2023-11-21T07:32:51;10.20;99.90
42683;DHT22;28293;50.930;3.464;2023-11-21T07:35:16;10.10;99.90
42683;DHT22;28293;50.930;3.464;2023-11-21T07:37:42;10.10;99.90
42683;DHT22;28293;50.930;3.464;2023-11-21T07:40:08;10.20;99.90
42683;DHT22;28293;50.930;3.464;2023-11-21T07:42:37;10.20;99.90
42683;DHT22;28293;50.930;3.464;2023-11-21T07:45:04;10.20;99.90
42683;DHT22;28293;50.930;3.464;2023-11-21T07:47:29;10.20;99.90
42683;DHT22;28293;50.930;3.464;2023-11-21T07:49:55;10.30;99.90
42683;DHT22;28293;50.930;3.464;2023-11-21T07:52:23;10.30;99.90
42683;DHT22;28293;50.930;3.464;2023-11-21T07:54:49;10.30;99.90
42683;DHT22;28293;50.930;3.464;2023-11-21T07:57:15;10.30;99.90
42683;DHT22;28293;50.930;3.464;2023-11-21T07:59:41;10.40;99.90
42683;DHT22;28293;50.930;3.464;2023-11-21T08:02:07;10.40;99.90
42683;DHT22;28293;50.930;3.464;2023-11-21T08:04:33;10.30;99.90
42683;DHT22;28293;50.930;3.464;2023-11-21T08:06:58;10.40;99.90
42683;DHT22;28293;50.930;3.464;2023-11-21T08:09:24;10.40;99.90
42683;DHT22;28293;50.930;3.464;2023-11-21T08:11:51;10.40;99.90
42683;DHT22;28293;50.930;3.464;2023-11-21T08:14:18;10.40;99.90
42683;DHT22;28293;50.930;3.464;2023-11-21T08:16:44;10.40;99.90
42683;DHT22;28293;50.930;3.464;2023-11-21T08:19:10;10.40;99.90
42683;DHT22;28293;50.930;3.464;2023-11-21T08:21:36;10.40;99.90
42683;DHT22;28293;50.930;3.464;2023-11-21T08:24:05;10.40;99.90
42683;DHT22;28293;50.930;3.464;2023-11-21T08:26:31;10.50;99.90
42683;DHT22;28293;50.930;3.464;2023-11-21T08:28:56;10.50;99.90
42683;DHT22;28293;50.930;3.464;2023-11-21T08:31:26;10.60;99.90
42683;DHT22;28293;50.930;3.464;2023-11-21T08:33:52;10.60;99.90
42683;DHT22;28293;50.930;3.464;2023-11-21T08:36:20;10.60;99.90
42683;DHT22;28293;50.930;3.464;2023-11-21T08:38:46;10.50;99.90
42683;DHT22;28293;50.930;3.464;2023-11-21T08:41:11;10.60;99.90
42683;DHT22;28293;50.930;3.464;2023-11-21T08:43:37;10.60;99.90
42683;DHT22;28293;50.930;3.464;2023-11-21T08:46:06;10.60;99.90
42683;DHT22;28293;50.930;3.464;2023-11-21T08:48:31;10.60;99.90
42683;DHT22;28293;50.930;3.464;2023-11-21T08:50:57;10.60;99.90
42683;DHT22;28293;50.930;3.464;2023-11-21T08:53:22;10.60;99.90
42683;DHT22;28293;50.930;3.464;2023-11-21T08:55:48;10.60;99.90
42683;DHT22;28293;50.930;3.464;2023-11-21T08:58:15;10.60;99.90
42683;DHT22;28293;50.930;3.464;2023-11-21T09:00:41;10.70;99.90
42683;DHT22;28293;50.930;3.464;2023-11-21T09:03:07;10.90;99.90
42683;DHT22;28293;50.930;3.464;2023-11-21T09:05:37;11.00;99.90
42683;DHT22;28293;50.930;3.464;2023-11-21T09:08:04;11.10;99.90
42683;DHT22;28293;50.930;3.464;2023-11-21T09:10:29;11.20;99.90
42683;DHT22;28293;50.930;3.464;2023-11-21T09:12:55;11.30;99.90
42683;DHT22;28293;50.930;3.464;2023-11-21T09:15:21;11.40;99.70
42683;DHT22;28293;50.930;3.464;2023-11-21T09:17:47;11.50;99.50
42683;DHT22;28293;50.930;3.464;2023-11-21T09:20:12;11.60;99.50
42683;DHT22;28293;50.930;3.464;2023-11-21T09:22:40;11.60;99.40
42683;DHT22;28293;50.930;3.464;2023-11-21T09:25:06;11.80;99.20
42683;DHT22;28293;50.930;3.464;2023-11-21T09:27:34;11.70;98.80
42683;DHT22;28293;50.930;3.464;2023-11-21T09:30:01;11.80;98.70
42683;DHT22;28293;50.930;3.464;2023-11-21T09:32:27;11.80;98.50
42683;DHT22;28293;50.930;3.464;2023-11-21T09:34:52;12.00;98.50
42683;DHT22;28293;50.930;3.464;2023-11-21T09:37:20;12.00;98.20
42683;DHT22;28293;50.930;3.464;2023-11-21T09:39:46;12.10;98.10
42683;DHT22;28293;50.930;3.464;2023-11-21T09:42:17;12.20;97.80
42683;DHT22;28293;50.930;3.464;2023-11-21T09:44:53;12.30;97.60
42683;DHT22;28293;50.930;3.464;2023-11-21T09:47:21;12.40;97.60
42683;DHT22;28293;50.930;3.464;2023-11-21T09:49:48;12.50;97.00
42683;DHT22;28293;50.930;3.464;2023-11-21T09:52:28;12.40;96.70
42683;DHT22;28293;50.930;3.464;2023-11-21T09:54:55;12.40;96.80
42683;DHT22;28293;50.930;3.464;2023-11-21T09:57:24;12.60;97.10
42683;DHT22;28293;50.930;3.464;2023-11-21T09:59:52;12.60;96.70
42683;DHT22;28293;50.930;3.464;2023-11-21T10:02:26;12.60;96.30
42683;DHT22;28293;50.930;3.464;2023-11-21T10:04:54;12.60;95.90
42683;DHT22;28293;50.930;3.464;2023-11-21T10:07:20;12.60;96.10
42683;DHT22;28293;50.930;3.464;2023-11-21T10:09:47;12.50;96.30
42683;DHT22;28293;50.930;3.464;2023-11-21T10:12:15;12.50;96.60
42683;DHT22;28293;50.930;3.464;2023-11-21T10:14:41;12.40;96.50
42683;DHT22;28293;50.930;3.464;2023-11-21T10:17:08;12.30;96.40
42683;DHT22;28293;50.930;3.464;2023-11-21T10:19:39;12.30;96.50
42683;DHT22;28293;50.930;3.464;2023-11-21T10:22:05;12.30;96.50
42683;DHT22;28293;50.930;3.464;2023-11-21T10:24:32;12.20;96.60
42683;DHT22;28293;50.930;3.464;2023-11-21T10:26:58;12.20;96.80
42683;DHT22;28293;50.930;3.464;2023-11-21T10:29:25;12.20;96.90
42683;DHT22;28293;50.930;3.464;2023-11-21T10:31:52;12.10;97.00
42683;DHT22;28293;50.930;3.464;2023-11-21T10:34:23;12.10;97.10
42683;DHT22;28293;50.930;3.464;2023-11-21T10:36:48;12.10;97.10
42683;DHT22;28293;50.930;3.464;2023-11-21T10:39:18;12.20;97.10
42683;DHT22;28293;50.930;3.464;2023-11-21T10:41:48;12.20;97.00
42683;DHT22;28293;50.930;3.464;2023-11-21T10:44:14;12.20;96.80
42683;DHT22;28293;50.930;3.464;2023-11-21T10:46:50;12.20;96.70
42683;DHT22;28293;50.930;3.464;2023-11-21T10:49:20;12.20;96.40
42683;DHT22;28293;50.930;3.464;2023-11-21T10:51:45;12.20;96.20
42683;DHT22;28293;50.930;3.464;2023-11-21T10:54:17;12.20;96.00
42683;DHT22;28293;50.930;3.464;2023-11-21T10:56:43;12.30;95.60
42683;DHT22;28293;50.930;3.464;2023-11-21T10:59:10;12.50;95.40
42683;DHT22;28293;50.930;3.464;2023-11-21T11:01:43;12.50;95.00
42683;DHT22;28293;50.930;3.464;2023-11-21T11:04:09;12.60;95.00
42683;DHT22;28293;50.930;3.464;2023-11-21T11:06:43;12.60;94.80
42683;DHT22;28293;50.930;3.464;2023-11-21T11:09:11;12.70;94.50
42683;DHT22;28293;50.930;3.464;2023-11-21T11:11:42;12.80;94.10
42683;DHT22;28293;50.930;3.464;2023-11-21T11:14:13;12.80;93.80
42683;DHT22;28293;50.930;3.464;2023-11-21T11:16:40;12.80;93.80
42683;DHT22;28293;50.930;3.464;2023-11-21T11:19:07;12.80;93.50
42683;DHT22;28293;50.930;3.464;2023-11-21T11:24:36;12.80;93.30
42683;DHT22;28293;50.930;3.464;2023-11-21T11:27:33;12.80;93.20
42683;DHT22;28293;50.930;3.464;2023-11-21T11:35:54;12.90;93.30
42683;DHT22;28293;50.930;3.464;2023-11-21T11:38:21;13.00;93.50
42683;DHT22;28293;50.930;3.464;2023-11-21T11:40:47;12.90;93.10
42683;DHT22;28293;50.930;3.464;2023-11-21T11:43:27;12.80;93.50
42683;DHT22;28293;50.930;3.464;2023-11-21T11:45:56;12.80;93.60
42683;DHT22;28293;50.930;3.464;2023-11-21T11:48:22;12.80;93.60
42683;DHT22;28293;50.930;3.464;2023-11-21T11:51:05;12.80;92.80
42683;DHT22;28293;50.930;3.464;2023-11-21T11:53:44;12.80;92.70
42683;DHT22;28293;50.930;3.464;2023-11-21T11:56:27;12.80;92.20
42683;DHT22;28293;50.930;3.464;2023-11-21T11:59:03;12.90;92.40
42683;DHT22;28293;50.930;3.464;2023-11-21T12:01:32;12.80;92.30
42683;DHT22;28293;50.930;3.464;2023-11-21T12:06:48;12.90;91.50
42683;DHT22;28293;50.930;3.464;2023-11-21T12:09:20;12.80;90.90
42683;DHT22;28293;50.930;3.464;2023-11-21T12:11:47;12.80;90.40
42683;DHT22;28293;50.930;3.464;2023-11-21T12:14:17;12.90;90.90
42683;DHT22;28293;50.930;3.464;2023-11-21T12:16:43;13.00;90.40
42683;DHT22;28293;50.930;3.464;2023-11-21T12:19:10;13.10;90.10
42683;DHT22;28293;50.930;3.464;2023-11-21T12:21:36;13.10;89.40
42683;DHT22;28293;50.930;3.464;2023-11-21T12:24:02;12.90;89.20
42683;DHT22;28293;50.930;3.464;2023-11-21T12:26:28;13.00;89.10
42683;DHT22;28293;50.930;3.464;2023-11-21T12:28:54;13.10;88.70
42683;DHT22;28293;50.930;3.464;2023-11-21T12:31:21;13.00;87.20
42683;DHT22;28293;50.930;3.464;2023-11-21T12:33:47;13.10;88.20
42683;DHT22;28293;50.930;3.464;2023-11-21T12:36:13;13.20;87.40
42683;DHT22;28293;50.930;3.464;2023-11-21T12:38:38;13.30;87.60
42683;DHT22;28293;50.930;3.464;2023-11-21T12:41:05;13.30;87.60
42683;DHT22;28293;50.930;3.464;2023-11-21T12:43:32;13.10;87.20
42683;DHT22;28293;50.930;3.464;2023-11-21T12:46:11;12.90;87.50
42683;DHT22;28293;50.930;3.464;2023-11-21T12:48:43;12.80;87.90
42683;DHT22;28293;50.930;3.464;2023-11-21T12:51:10;12.70;87.50
42683;DHT22;28293;50.930;3.464;2023-11-21T12:53:44;12.60;87.40
42683;DHT22;28293;50.930;3.464;2023-11-21T12:56:11;12.80;87.30
42683;DHT22;28293;50.930;3.464;2023-11-21T12:58:38;12.80;86.80
42683;DHT22;28293;50.930;3.464;2023-11-21T13:01:08;12.80;87.50
42683;DHT22;28293;50.930;3.464;2023-11-21T13:03:43;12.80;87.20
42683;DHT22;28293;50.930;3.464;2023-11-21T13:06:11;12.70;87.00
42683;DHT22;28293;50.930;3.464;2023-11-21T13:08:38;12.60;87.40
42683;DHT22;28293;50.930;3.464;2023-11-21T13:11:04;12.60;87.40
42683;DHT22;28293;50.930;3.464;2023-11-21T13:13:31;12.70;87.20
42683;DHT22;28293;50.930;3.464;2023-11-21T13:16:00;12.80;87.30
42683;DHT22;28293;50.930;3.464;2023-11-21T13:18:33;12.80;87.40
42683;DHT22;28293;50.930;3.464;2023-11-21T13:21:04;12.80;87.60
42683;DHT22;28293;50.930;3.464;2023-11-21T13:23:41;12.90;88.00
42683;DHT22;28293;50.930;3.464;2023-11-21T13:26:07;12.90;87.50
42683;DHT22;28293;50.930;3.464;2023-11-21T13:28:34;12.90;87.40
42683;DHT22;28293;50.930;3.464;2023-11-21T13:31:01;12.90;87.70
42683;DHT22;28293;50.930;3.464;2023-11-21T13:33:47;12.90;87.40
42683;DHT22;28293;50.930;3.464;2023-11-21T13:36:21;13.00;87.50
42683;DHT22;28293;50.930;3.464;2023-11-21T13:38:51;13.00;87.90
42683;DHT22;28293;50.930;3.464;2023-11-21T13:41:20;12.90;87.80
42683;DHT22;28293;50.930;3.464;2023-11-21T13:43:48;13.00;88.00
42683;DHT22;28293;50.930;3.464;2023-11-21T13:46:23;12.90;87.30
42683;DHT22;28293;50.930;3.464;2023-11-21T13:48:49;13.10;87.30
42683;DHT22;28293;50.930;3.464;2023-11-21T13:51:24;13.00;87.00
42683;DHT22;28293;50.930;3.464;2023-11-21T13:54:09;13.00;87.20
42683;DHT22;28293;50.930;3.464;2023-11-21T13:56:39;13.00;87.30
42683;DHT22;28293;50.930;3.464;2023-11-21T13:59:06;13.00;87.30
42683;DHT22;28293;50.930;3.464;2023-11-21T14:01:45;12.90;87.50
42683;DHT22;28293;50.930;3.464;2023-11-21T14:04:21;13.00;87.70
42683;DHT22;28293;50.930;3.464;2023-11-21T14:07:00;13.10;87.80
42683;DHT22;28293;50.930;3.464;2023-11-21T14:09:36;13.10;87.90
42683;DHT22;28293;50.930;3.464;2023-11-21T14:12:09;13.20;87.60
42683;DHT22;28293;50.930;3.464;2023-11-21T14:14:37;13.20;86.80
42683;DHT22;28293;50.930;3.464;2023-11-21T14:17:04;13.10;86.50
42683;DHT22;28293;50.930;3.464;2023-11-21T14:19:32;13.10;86.40
42683;DHT22;28293;50.930;3.464;2023-11-21T14:21:59;13.10;86.50
42683;DHT22;28293;50.930;3.464;2023-11-21T14:24:25;13.10;86.70
42683;DHT22;28293;50.930;3.464;2023-11-21T14:26:51;13.00;87.10
42683;DHT22;28293;50.930;3.464;2023-11-21T14:29:18;13.00;87.20
42683;DHT22;28293;50.930;3.464;2023-11-21T14:31:48;13.00;87.10
42683;DHT22;28293;50.930;3.464;2023-11-21T14:34:16;13.10;87.20
42683;DHT22;28293;50.930;3.464;2023-11-21T14:36:43;13.10;87.00
42683;DHT22;28293;50.930;3.464;2023-11-21T14:39:10;13.00;87.20
42683;DHT22;28293;50.930;3.464;2023-11-21T14:41:49;13.00;87.40
42683;DHT22;28293;50.930;3.464;2023-11-21T14:44:15;13.00;87.20
42683;DHT22;28293;50.930;3.464;2023-11-21T14:46:41;13.00;87.10
42683;DHT22;28293;50.930;3.464;2023-11-21T14:49:11;12.90;87.20
42683;DHT22;28293;50.930;3.464;2023-11-21T14:51:49;12.80;87.30
42683;DHT22;28293;50.930;3.464;2023-11-21T14:54:33;12.80;87.30
42683;DHT22;28293;50.930;3.464;2023-11-21T14:57:05;12.80;87.50
42683;DHT22;28293;50.930;3.464;2023-11-21T14:59:37;12.70;87.20
42683;DHT22;28293;50.930;3.464;2023-11-21T15:02:03;12.60;87.50
42683;DHT22;28293;50.930;3.464;2023-11-21T15:04:43;12.70;87.40
42683;DHT22;28293;50.930;3.464;2023-11-21T15:07:09;12.60;87.40
42683;DHT22;28293;50.930;3.464;2023-11-21T15:09:37;12.60;87.50
42683;DHT22;28293;50.930;3.464;2023-11-21T15:12:10;12.60;87.40
42683;DHT22;28293;50.930;3.464;2023-11-21T15:14:50;12.60;87.60
42683;DHT22;28293;50.930;3.464;2023-11-21T15:17:19;12.50;87.60
42683;DHT22;28293;50.930;3.464;2023-11-21T15:19:56;12.60;87.90
42683;DHT22;28293;50.930;3.464;2023-11-21T15:22:22;12.50;88.10
42683;DHT22;28293;50.930;3.464;2023-11-21T15:24:48;12.50;87.90
42683;DHT22;28293;50.930;3.464;2023-11-21T15:27:15;12.40;88.00
42683;DHT22;28293;50.930;3.464;2023-11-21T15:29:44;12.30;88.20
42683;DHT22;28293;50.930;3.464;2023-11-21T15:32:10;12.20;88.30
42683;DHT22;28293;50.930;3.464;2023-11-21T15:34:36;12.20;88.60
42683;DHT22;28293;50.930;3.464;2023-11-21T15:37:03;12.20;88.90
42683;DHT22;28293;50.930;3.464;2023-11-21T15:39:30;12.10;89.00
42683;DHT22;28293;50.930;3.464;2023-11-21T15:41:57;12.10;89.20
42683;DHT22;28293;50.930;3.464;2023-11-21T15:44:24;12.10;89.30
42683;DHT22;28293;50.930;3.464;2023-11-21T15:46:51;12.10;89.40
42683;DHT22;28293;50.930;3.464;2023-11-21T15:49:17;12.00;89.40